Terminal Aerodrome Forecast
Issued by NWS

Home | Current Version | Previous Version | Text Only | Print | Product List | Glossary On
Versions: 1 2 3 4 5 6 7 8 9 10 11 12 13 14 15 16 17 18 19 20 21 22 23 24 25 26 27 28
000
FTUS46 KOTX 281355 AAA
TAFPUW
TAF AMD
KPUW 281355Z 2814/2912 25026G37KT P6SM SCT020 BKN045
     FM282000 25022G30KT P6SM BKN050
     FM282200 25019G26KT P6SM SCT050
     FM290130 24009KT P6SM SKC=

USA.gov is the U.S. government's official web portal to all federal, state and local government web resources and services.